createdAt,value
2018-03-06T00:00:51.957Z,80.57
2018-03-06T00:03:19.560Z,75.80
2018-03-06T00:05:46.415Z,87.28
2018-03-06T00:08:13.258Z,80.93
2018-03-06T00:10:40.138Z,81.25
2018-03-06T00:13:07.757Z,68.80
2018-03-06T00:15:34.634Z,81.53
2018-03-06T00:18:01.491Z,74.55
2018-03-06T00:20:29.099Z,67.05
2018-03-06T00:22:55.959Z,69.95
2018-03-06T00:25:22.819Z,77.68
2018-03-06T00:27:49.675Z,82.55
2018-03-06T00:30:17.346Z,82.97
2018-03-06T00:32:44.216Z,84.20
2018-03-06T00:35:11.063Z,80.25
2018-03-06T00:37:37.939Z,80.82
2018-03-06T00:40:04.810Z,73.97
2018-03-06T00:42:31.655Z,78.28
2018-03-06T00:44:58.554Z,75.70
2018-03-06T00:47:25.496Z,75.80
2018-03-06T00:49:52.359Z,76.18
2018-03-06T00:52:19.219Z,73.35
2018-03-06T00:54:46.078Z,82.12
2018-03-06T00:57:12.932Z,76.12
2018-03-06T00:59:39.802Z,88.20
2018-03-06T01:02:06.722Z,69.03
2018-03-06T01:04:34.278Z,78.65
2018-03-06T01:07:01.141Z,84.25
2018-03-06T01:09:28.026Z,79.03
2018-03-06T01:11:55.644Z,62.10
2018-03-06T01:14:22.558Z,77.22
2018-03-06T01:16:50.130Z,70.97
2018-03-06T01:19:17.767Z,70.90
2018-03-06T01:21:45.368Z,70.70
2018-03-06T01:24:12.235Z,71.30
2018-03-06T01:26:39.114Z,84.45
2018-03-06T01:29:06.734Z,69.82
2018-03-06T01:31:33.651Z,66.30
2018-03-06T01:34:00.446Z,65.60
2018-03-06T01:36:27.305Z,70.57
2018-03-06T01:38:54.166Z,63.05
2018-03-06T01:41:21.761Z,69.20
2018-03-06T01:43:48.622Z,68.12
2018-03-06T01:46:15.506Z,87.70
2018-03-06T01:48:43.110Z,67.47
2018-03-06T01:51:09.982Z,85.20
2018-03-06T01:53:36.839Z,70.78
2018-03-06T01:56:04.445Z,75.45
2018-03-06T01:58:31.311Z,73.72
2018-03-06T02:00:58.916Z,68.03
2018-03-06T02:03:26.555Z,69.80
2018-03-06T02:05:53.402Z,80.28
2018-03-06T02:08:21.027Z,77.85
2018-03-06T02:10:47.894Z,81.35
2018-03-06T02:13:15.502Z,82.20
2018-03-06T02:15:42.390Z,77.28
2018-03-06T02:18:09.262Z,70.25
2018-03-06T02:20:36.123Z,83.28
2018-03-06T02:23:03.066Z,78.30
2018-03-06T02:25:29.955Z,76.30
2018-03-06T02:27:56.838Z,67.60
2018-03-06T02:30:24.489Z,74.95
2018-03-06T02:32:51.347Z,82.07
2018-03-06T02:35:18.946Z,75.43
2018-03-06T02:37:45.809Z,67.82
2018-03-06T02:40:12.690Z,67.62
2018-03-06T02:42:39.542Z,66.93
2018-03-06T02:45:06.398Z,80.53
2018-03-06T02:47:33.295Z,73.97
2018-03-06T02:50:00.156Z,84.60
2018-03-06T02:52:27.028Z,67.82
2018-03-06T02:54:53.890Z,67.35
2018-03-06T02:57:20.753Z,76.95
2018-03-06T02:59:47.640Z,74.03
2018-03-06T03:02:14.516Z,75.97
2018-03-06T03:04:42.084Z,74.78
2018-03-06T03:07:08.965Z,57.75
2018-03-06T03:09:35.849Z,74.30
2018-03-06T03:12:03.440Z,71.53
2018-03-06T03:14:30.327Z,75.70
2018-03-06T03:16:57.933Z,65.45
2018-03-06T03:19:24.819Z,80.53
2018-03-06T03:21:51.695Z,67.97
2018-03-06T03:24:19.287Z,68.65
2018-03-06T03:26:46.119Z,82.65
2018-03-06T03:29:13.010Z,77.47
2018-03-06T03:31:39.854Z,89.28
2018-03-06T03:34:07.455Z,74.28
2018-03-06T03:36:35.039Z,78.43
2018-03-06T03:39:02.714Z,77.55
2018-03-06T03:41:29.606Z,76.55
2018-03-06T03:43:56.473Z,74.18
2018-03-06T03:46:23.326Z,84.93
2018-03-06T03:48:50.243Z,86.60
2018-03-06T03:51:17.139Z,68.80
2018-03-06T03:53:43.990Z,78.15
2018-03-06T03:56:10.840Z,65.65
2018-03-06T03:58:37.731Z,76.32
2018-03-06T04:01:04.598Z,74.55
2018-03-06T04:03:31.530Z,66.68
2018-03-06T04:05:58.379Z,70.00
2018-03-06T04:08:25.247Z,86.60
2018-03-06T04:10:52.143Z,60.80
2018-03-06T04:13:19.008Z,74.28
2018-03-06T04:15:45.870Z,77.90
2018-03-06T04:18:12.753Z,77.53
2018-03-06T04:20:39.582Z,71.75
2018-03-06T04:23:06.429Z,65.95
2018-03-06T04:25:34.063Z,64.95
2018-03-06T04:28:00.943Z,74.45
2018-03-06T04:30:28.564Z,78.20
2018-03-06T04:32:55.406Z,67.87
2018-03-06T04:35:22.279Z,76.43
2018-03-06T04:37:49.910Z,74.43
2018-03-06T04:40:16.798Z,83.70
2018-03-06T04:42:44.391Z,77.37
2018-03-06T04:45:11.283Z,76.55
2018-03-06T04:47:38.885Z,63.03
2018-03-06T04:50:05.735Z,75.28
2018-03-06T04:52:32.595Z,69.72
2018-03-06T04:54:59.478Z,80.05
2018-03-06T04:57:26.371Z,79.12
2018-03-06T04:59:53.246Z,74.53
2018-03-06T05:02:20.087Z,76.50
2018-03-06T05:04:47.017Z,75.20
2018-03-06T05:07:14.002Z,79.32
2018-03-06T05:09:41.620Z,69.37
2018-03-06T05:12:08.490Z,78.18
2018-03-06T05:14:35.366Z,74.87
2018-03-06T05:17:02.967Z,74.45
2018-03-06T05:19:29.863Z,75.12
2018-03-06T05:21:57.454Z,74.37
2018-03-06T05:24:24.314Z,79.78
2018-03-06T05:26:51.214Z,78.35
2018-03-06T05:29:18.921Z,89.55
2018-03-06T05:31:45.908Z,80.70
2018-03-06T05:34:12.915Z,86.10
2018-03-06T05:36:40.567Z,78.75
2018-03-06T05:39:07.426Z,78.40
2018-03-06T05:41:34.318Z,81.28
2018-03-06T05:44:01.931Z,75.35
2018-03-06T05:46:28.776Z,85.38
2018-03-06T05:48:55.613Z,82.82
2018-03-06T05:51:22.487Z,73.82
2018-03-06T05:53:50.114Z,91.53
2018-03-06T05:56:16.991Z,83.57
2018-03-06T05:58:43.868Z,71.12
2018-03-06T06:01:11.424Z,80.45
2018-03-06T06:03:39.006Z,73.95
2018-03-06T06:06:05.902Z,78.10
2018-03-06T06:08:32.754Z,76.97
2018-03-06T06:10:59.627Z,85.70
2018-03-06T06:13:26.484Z,85.47
2018-03-06T06:15:53.326Z,71.87
2018-03-06T06:18:20.159Z,82.68
2018-03-06T06:20:47.029Z,74.90
2018-03-06T06:23:13.879Z,85.97
2018-03-06T06:25:40.739Z,81.15
2018-03-06T06:28:08.350Z,76.03
2018-03-06T06:30:35.230Z,85.18
2018-03-06T06:33:02.075Z,80.97
2018-03-06T06:35:28.922Z,79.53
2018-03-06T06:37:55.783Z,91.12
2018-03-06T06:40:22.623Z,88.80
2018-03-06T06:42:49.494Z,86.65
2018-03-06T06:45:17.069Z,77.10
2018-03-06T06:47:44.627Z,99.07
2018-03-06T06:50:11.541Z,78.28
2018-03-06T06:52:38.378Z,87.07
2018-03-06T06:55:05.206Z,87.82
2018-03-06T06:57:32.083Z,83.75
2018-03-06T06:59:58.939Z,82.97
2018-03-06T07:02:25.811Z,91.85
2018-03-06T07:04:52.650Z,77.97
2018-03-06T07:07:19.465Z,73.95
2018-03-06T07:09:46.318Z,69.35
2018-03-06T07:12:13.184Z,72.15
2018-03-06T07:14:40.035Z,74.62
2018-03-06T07:17:06.871Z,72.20
2018-03-06T07:19:33.744Z,87.95
2018-03-06T07:22:00.594Z,81.43
2018-03-06T07:24:27.429Z,81.63
2018-03-06T07:26:54.299Z,92.95
2018-03-06T07:29:21.152Z,82.88
2018-03-06T07:31:48.015Z,77.62
2018-03-06T07:34:14.863Z,81.20
2018-03-06T07:36:41.710Z,82.28
2018-03-06T07:39:08.555Z,82.28
2018-03-06T07:41:35.455Z,71.90
2018-03-06T07:44:03.155Z,77.35
2018-03-06T07:46:30.003Z,74.97
2018-03-06T07:48:56.887Z,88.75
2018-03-06T07:51:23.723Z,76.90
2018-03-06T07:53:50.574Z,78.87
2018-03-06T07:56:17.463Z,64.97
2018-03-06T07:58:44.294Z,54.05
2018-03-06T08:01:11.160Z,61.90
2018-03-06T08:03:38.039Z,64.10
2018-03-06T08:06:04.892Z,62.15
2018-03-06T08:08:31.734Z,66.32
2018-03-06T08:10:58.605Z,70.65
2018-03-06T08:13:25.450Z,61.30
2018-03-06T08:15:52.323Z,61.22
2018-03-06T08:18:19.192Z,53.63
2018-03-06T08:20:46.014Z,56.85
2018-03-06T08:23:12.844Z,51.17
2018-03-06T08:25:39.707Z,49.40
2018-03-06T08:28:06.521Z,47.30
2018-03-06T08:30:33.334Z,51.20
2018-03-06T08:33:00.946Z,51.25
2018-03-06T08:35:27.787Z,53.67
2018-03-06T08:37:54.654Z,75.55
2018-03-06T08:40:21.487Z,46.63
2018-03-06T08:42:48.387Z,54.70
2018-03-06T08:45:15.230Z,57.28
2018-03-06T08:47:42.122Z,49.40
2018-03-06T08:50:08.965Z,54.33
2018-03-06T08:52:35.808Z,46.13
2018-03-06T08:55:02.715Z,49.78
2018-03-06T08:57:29.579Z,46.20
2018-03-06T08:59:56.448Z,57.15
2018-03-06T09:02:23.323Z,55.30
2018-03-06T09:04:50.175Z,46.42
2018-03-06T09:07:17.006Z,52.22
2018-03-06T09:09:44.615Z,49.65
2018-03-06T09:12:11.529Z,44.85
2018-03-06T09:14:39.083Z,47.38
2018-03-06T09:17:05.978Z,51.30
2018-03-06T09:19:33.924Z,46.50
2018-03-06T09:22:00.778Z,45.55
2018-03-06T09:24:28.378Z,44.63
2018-03-06T09:26:55.231Z,49.58
2018-03-06T09:29:22.134Z,44.45
2018-03-06T09:31:49.004Z,44.40
2018-03-06T09:34:16.583Z,42.08
2018-03-06T09:36:43.490Z,36.60
2018-03-06T09:39:10.344Z,36.97
2018-03-06T09:41:37.935Z,36.85
2018-03-06T09:44:04.799Z,41.17
2018-03-06T09:46:31.651Z,36.22
2018-03-06T09:48:58.520Z,32.90
2018-03-06T09:51:25.368Z,37.55
2018-03-06T09:53:52.971Z,27.58
2018-03-06T09:56:19.834Z,31.95
2018-03-06T09:58:46.718Z,31.27
2018-03-06T10:01:13.583Z,29.10
2018-03-06T10:03:41.162Z,30.98
2018-03-06T10:06:08.055Z,28.85
2018-03-06T10:08:34.884Z,41.58
2018-03-06T10:11:09.274Z,35.58
2018-03-06T10:13:36.146Z,28.55
2018-03-06T10:16:03.030Z,36.30
2018-03-06T10:18:30.634Z,33.33
2018-03-06T10:20:57.470Z,35.28
2018-03-06T10:23:24.315Z,40.90
2018-03-06T10:25:51.187Z,34.67
2018-03-06T10:28:18.030Z,41.35
2018-03-06T10:30:44.866Z,40.80
2018-03-06T10:33:11.733Z,49.27
2018-03-06T10:35:38.586Z,41.22
2018-03-06T10:38:06.187Z,38.13
2018-03-06T10:40:33.049Z,38.65
2018-03-06T10:43:00.358Z,44.83
2018-03-06T10:45:27.298Z,45.15
2018-03-06T10:47:54.897Z,43.15
2018-03-06T10:50:21.763Z,38.45
2018-03-06T10:52:48.607Z,42.13
2018-03-06T10:55:16.452Z,42.13
2018-03-06T10:57:43.258Z,40.20
2018-03-06T11:00:10.136Z,38.55
2018-03-06T11:02:42.038Z,38.30
2018-03-06T11:05:08.880Z,39.43
2018-03-06T11:07:35.722Z,37.65
2018-03-06T11:10:02.675Z,34.20
2018-03-06T11:12:29.518Z,35.33
2018-03-06T11:14:57.122Z,41.28
2018-03-06T11:17:24.027Z,45.47
2018-03-06T11:19:50.865Z,39.67
2018-03-06T11:22:17.689Z,42.40
2018-03-06T11:24:44.616Z,49.55
2018-03-06T11:27:11.488Z,41.67
2018-03-06T11:29:38.345Z,40.92
2018-03-06T11:32:05.203Z,47.65
2018-03-06T11:34:32.058Z,44.80
2018-03-06T11:36:58.874Z,43.65
2018-03-06T11:39:25.718Z,39.75
2018-03-06T11:41:52.581Z,40.08
2018-03-06T11:44:19.451Z,41.42
2018-03-06T11:46:46.327Z,40.30
2018-03-06T11:49:13.913Z,40.23
2018-03-06T11:51:40.782Z,35.27
2018-03-06T11:54:07.610Z,39.27
2018-03-06T11:56:34.471Z,36.93
2018-03-06T11:59:01.343Z,40.63
2018-03-06T12:01:28.924Z,38.73
2018-03-06T12:03:55.800Z,35.63
2018-03-06T12:06:23.086Z,36.70
2018-03-06T12:08:49.927Z,35.77
2018-03-06T12:11:17.486Z,34.07
2018-03-06T12:13:44.365Z,35.47
2018-03-06T12:16:11.931Z,34.60
2018-03-06T12:18:38.829Z,34.77
2018-03-06T12:21:05.679Z,36.37
2018-03-06T12:23:33.263Z,40.53
2018-03-06T12:26:00.854Z,34.90
2018-03-06T12:28:27.726Z,37.10
2018-03-06T12:30:54.551Z,34.77
2018-03-06T12:33:21.410Z,36.50
2018-03-06T12:35:48.247Z,36.87
2018-03-06T12:38:15.112Z,37.50
2018-03-06T12:40:41.934Z,37.23
2018-03-06T12:43:08.786Z,41.57
2018-03-06T12:45:35.646Z,37.83
2018-03-06T12:48:02.490Z,37.97
2018-03-06T12:50:29.315Z,35.83
2018-03-06T12:52:56.189Z,38.57
2018-03-06T12:55:23.778Z,35.73
2018-03-06T12:57:50.606Z,37.23
2018-03-06T13:00:17.423Z,38.27
2018-03-06T13:02:45.048Z,39.20
2018-03-06T13:05:11.878Z,41.20
2018-03-06T13:07:38.970Z,41.83
2018-03-06T13:10:06.595Z,42.93
2018-03-06T13:12:33.422Z,39.97
2018-03-06T13:15:00.259Z,37.10
2018-03-06T13:17:27.122Z,34.63
2018-03-06T13:19:53.967Z,39.07
2018-03-06T13:22:20.802Z,38.80
2018-03-06T13:24:47.690Z,34.30
2018-03-06T13:27:15.310Z,36.27
2018-03-06T13:29:42.142Z,35.37
2018-03-06T13:32:09.323Z,34.17
2018-03-06T13:34:36.198Z,31.40
2018-03-06T13:37:03.779Z,34.30
2018-03-06T13:39:30.611Z,35.83
2018-03-06T13:41:57.459Z,37.80
2018-03-06T13:44:25.015Z,35.33
2018-03-06T13:46:52.593Z,34.20
2018-03-06T13:49:19.475Z,32.17
2018-03-06T13:51:47.075Z,37.37
2018-03-06T13:54:14.670Z,34.87
2018-03-06T13:56:41.494Z,39.63
2018-03-06T13:59:08.331Z,34.37
2018-03-06T14:01:35.202Z,34.33
2018-03-06T14:04:02.084Z,33.03
2018-03-06T14:06:29.703Z,32.70
2018-03-06T14:08:56.596Z,36.53
2018-03-06T14:11:24.194Z,37.20
2018-03-06T14:13:51.031Z,36.97
2018-03-06T14:16:17.859Z,40.73
2018-03-06T14:18:45.440Z,37.77
2018-03-06T14:21:12.291Z,34.63
2018-03-06T14:23:39.146Z,34.63
2018-03-06T14:26:06.019Z,36.23
2018-03-06T14:28:32.843Z,35.60
2018-03-06T14:30:59.785Z,35.00
2018-03-06T14:33:26.627Z,37.73
2018-03-06T14:35:53.495Z,40.43
2018-03-06T14:38:20.350Z,38.10
2018-03-06T14:40:47.931Z,35.57
2018-03-06T14:43:14.766Z,41.25
2018-03-06T14:45:41.630Z,45.25
2018-03-06T14:48:08.483Z,43.15
2018-03-06T14:50:35.326Z,36.92
2018-03-06T14:53:02.173Z,35.05
2018-03-06T14:55:29.015Z,34.45
2018-03-06T14:57:56.615Z,36.38
2018-03-06T15:00:24.195Z,35.22
2018-03-06T15:02:51.048Z,36.45
2018-03-06T15:05:17.900Z,35.88
2018-03-06T15:07:45.395Z,36.13
2018-03-06T15:10:12.240Z,40.08
2018-03-06T15:12:46.127Z,37.17
2018-03-06T15:15:12.965Z,40.33
2018-03-06T15:17:39.815Z,38.33
2018-03-06T15:20:06.683Z,36.67
2018-03-06T15:22:33.524Z,38.00
2018-03-06T15:25:00.394Z,41.05
2018-03-06T15:27:27.984Z,43.47
2018-03-06T15:29:54.831Z,38.63
2018-03-06T15:32:21.687Z,38.00
2018-03-06T15:34:48.512Z,33.38
2018-03-06T15:37:15.343Z,37.72
2018-03-06T15:39:42.195Z,36.45
2018-03-06T15:42:09.039Z,40.20
2018-03-06T15:44:35.866Z,34.22
2018-03-06T15:47:02.726Z,40.00
2018-03-06T15:49:29.577Z,47.70
2018-03-06T15:51:56.431Z,36.47
2018-03-06T15:54:23.283Z,38.15
2018-03-06T15:56:50.141Z,45.47
2018-03-06T15:59:16.963Z,39.38
2018-03-06T16:01:43.823Z,37.15
2018-03-06T16:04:10.670Z,42.90
2018-03-06T16:06:37.496Z,45.35
2018-03-06T16:09:04.586Z,44.70
2018-03-06T16:11:32.362Z,45.72
2018-03-06T16:13:59.324Z,47.17
2018-03-06T16:16:26.349Z,49.85
2018-03-06T16:18:53.394Z,45.85
2018-03-06T16:21:21.002Z,49.42
2018-03-06T16:23:48.012Z,44.53
2018-03-06T16:26:15.116Z,47.78
2018-03-06T16:28:42.250Z,41.90
2018-03-06T16:31:09.245Z,47.03
2018-03-06T16:33:36.980Z,57.33
2018-03-06T16:36:03.954Z,52.25
2018-03-06T16:38:31.652Z,53.75
2018-03-06T16:40:59.633Z,59.30
2018-03-06T16:43:27.607Z,43.63
2018-03-06T16:45:54.724Z,61.03
2018-03-06T16:48:22.548Z,49.13
2018-03-06T16:50:49.662Z,53.42
2018-03-06T16:53:16.603Z,60.08
2018-03-06T16:55:43.560Z,61.75
2018-03-06T16:58:10.640Z,61.70
2018-03-06T17:00:44.621Z,56.25
2018-03-06T17:03:12.311Z,56.58
2018-03-06T17:05:39.439Z,60.50
2018-03-06T17:08:06.553Z,63.15
2018-03-06T17:10:33.694Z,57.08
2018-03-06T17:13:00.780Z,65.90
2018-03-06T17:15:28.559Z,61.80
2018-03-06T17:17:56.319Z,65.05
2018-03-06T17:20:23.305Z,61.40
2018-03-06T17:22:50.332Z,63.28
2018-03-06T17:25:17.332Z,60.55
2018-03-06T17:27:44.927Z,66.35
2018-03-06T17:30:11.806Z,73.20
2018-03-06T17:32:38.820Z,73.75
2018-03-06T17:35:06.567Z,80.55
2018-03-06T17:37:34.248Z,68.82
2018-03-06T17:40:01.250Z,82.50
2018-03-06T17:42:28.221Z,78.32
2018-03-06T17:44:55.180Z,72.40
2018-03-06T17:47:22.270Z,76.15
2018-03-06T17:49:49.229Z,81.63
2018-03-06T17:52:16.215Z,75.95
2018-03-06T17:54:43.291Z,79.15
2018-03-06T17:57:11.083Z,82.43
2018-03-06T17:59:38.143Z,82.10
2018-03-06T18:02:05.261Z,73.87
2018-03-06T18:04:32.243Z,69.20
2018-03-06T18:06:59.311Z,80.05
2018-03-06T18:09:26.357Z,72.68
2018-03-06T18:11:53.423Z,82.62
2018-03-06T18:14:20.450Z,88.03
2018-03-06T18:16:47.451Z,81.20
2018-03-06T18:19:14.531Z,86.57
2018-03-06T18:21:41.342Z,99.28
2018-03-06T18:24:08.230Z,91.87
2018-03-06T18:26:35.127Z,86.95
2018-03-06T18:29:02.055Z,90.18
2018-03-06T18:31:29.101Z,86.60
2018-03-06T18:33:55.990Z,82.80
2018-03-06T18:36:22.822Z,79.80
2018-03-06T18:38:49.994Z,85.90
2018-03-06T18:41:16.872Z,87.68
2018-03-06T18:43:43.698Z,98.30
2018-03-06T18:46:10.566Z,94.28
2018-03-06T18:48:37.403Z,91.32
2018-03-06T18:51:08.854Z,81.25
2018-03-06T18:53:36.463Z,83.10
2018-03-06T18:56:03.319Z,94.15
2018-03-06T18:58:30.165Z,92.97
2018-03-06T19:01:09.352Z,77.12
2018-03-06T19:03:49.360Z,84.35
2018-03-06T19:06:22.480Z,83.03
2018-03-06T19:08:49.389Z,81.82
2018-03-06T19:11:16.327Z,80.00
2018-03-06T19:13:43.795Z,84.53
2018-03-06T19:16:11.440Z,85.38
2018-03-06T19:18:38.287Z,80.35
2018-03-06T19:21:05.179Z,82.53
2018-03-06T19:23:32.799Z,72.45
2018-03-06T19:25:59.640Z,80.80
2018-03-06T19:28:26.536Z,73.25
2018-03-06T19:30:54.278Z,66.95
2018-03-06T19:33:21.886Z,77.03
2018-03-06T19:35:49.072Z,73.07
2018-03-06T19:38:15.983Z,68.85
2018-03-06T19:40:43.600Z,72.85
2018-03-06T19:43:11.193Z,74.80
2018-03-06T19:45:38.124Z,63.47
2018-03-06T19:48:05.698Z,69.12
2018-03-06T19:50:32.544Z,76.18
2018-03-06T19:53:00.508Z,69.12
2018-03-06T19:55:27.486Z,75.43
2018-03-06T19:57:54.399Z,73.37
2018-03-06T20:00:21.983Z,75.30
2018-03-06T20:02:49.083Z,78.20
2018-03-06T20:05:16.884Z,79.05
2018-03-06T20:07:44.907Z,81.45
2018-03-06T20:10:11.939Z,75.50
2018-03-06T20:12:39.163Z,80.93
2018-03-06T20:15:12.991Z,84.50
2018-03-06T20:17:40.147Z,84.75
2018-03-06T20:20:07.296Z,94.20
2018-03-06T20:22:34.940Z,78.35
2018-03-06T20:25:08.080Z,91.22
2018-03-06T20:27:35.953Z,85.55
2018-03-06T20:30:03.131Z,100.57
2018-03-06T20:32:36.111Z,82.40
2018-03-06T20:35:03.001Z,90.22
2018-03-06T20:37:29.866Z,86.35
2018-03-06T20:40:02.820Z,91.72
2018-03-06T20:42:29.838Z,85.40
2018-03-06T20:44:57.287Z,97.90
2018-03-06T20:47:24.403Z,91.90
2018-03-06T20:49:51.415Z,100.53
2018-03-06T20:52:18.288Z,105.43
2018-03-06T20:54:51.552Z,89.22
2018-03-06T20:57:18.670Z,91.35
2018-03-06T20:59:45.571Z,92.20
2018-03-06T21:02:13.482Z,100.87
2018-03-06T21:04:40.587Z,98.55
2018-03-06T21:07:08.252Z,88.07
2018-03-06T21:09:36.042Z,91.65
2018-03-06T21:12:02.931Z,94.30
2018-03-06T21:14:29.947Z,85.82
2018-03-06T21:16:57.888Z,79.10
2018-03-06T21:19:26.003Z,83.50
2018-03-06T21:21:53.065Z,79.93
2018-03-06T21:24:20.236Z,87.95
2018-03-06T21:26:47.404Z,75.43
2018-03-06T21:29:14.288Z,82.57
2018-03-06T21:31:41.300Z,75.78
2018-03-06T21:34:08.440Z,69.47
2018-03-06T21:36:35.457Z,63.67
2018-03-06T21:39:03.255Z,67.10
2018-03-06T21:41:30.116Z,71.55
2018-03-06T21:43:58.359Z,69.93
2018-03-06T21:46:25.886Z,54.50
2018-03-06T21:48:53.229Z,52.85
2018-03-06T21:51:20.888Z,51.47
2018-03-06T21:53:47.749Z,49.75
2018-03-06T21:56:14.613Z,55.75
2018-03-06T21:58:41.471Z,51.40
2018-03-06T22:01:09.131Z,53.03
2018-03-06T22:03:36.750Z,56.45
2018-03-06T22:06:03.611Z,54.55
2018-03-06T22:08:30.481Z,59.55
2018-03-06T22:10:57.322Z,48.60
2018-03-06T22:13:24.179Z,56.60
2018-03-06T22:15:50.990Z,54.55
2018-03-06T22:18:17.847Z,54.67
2018-03-06T22:20:44.698Z,50.90
2018-03-06T22:23:11.502Z,56.63
2018-03-06T22:25:38.401Z,54.50
2018-03-06T22:28:06.014Z,53.05
2018-03-06T22:30:32.887Z,56.53
2018-03-06T22:33:00.472Z,62.20
2018-03-06T22:35:27.330Z,54.85
2018-03-06T22:37:54.243Z,55.00
2018-03-06T22:40:21.819Z,54.22
2018-03-06T22:42:49.402Z,54.03
2018-03-06T22:45:16.261Z,52.80
2018-03-06T22:47:43.090Z,63.25
2018-03-06T22:50:09.911Z,52.53
2018-03-06T22:52:36.771Z,63.33
2018-03-06T22:55:03.646Z,56.90
2018-03-06T22:57:30.483Z,62.17
2018-03-06T22:59:57.348Z,61.17
2018-03-06T23:02:24.166Z,56.72
2018-03-06T23:04:50.999Z,58.25
2018-03-06T23:07:17.868Z,56.33
2018-03-06T23:09:44.759Z,65.18
2018-03-06T23:12:11.595Z,59.13
2018-03-06T23:14:39.153Z,56.28
2018-03-06T23:17:06.009Z,55.10
2018-03-06T23:19:32.827Z,48.95
2018-03-06T23:21:59.626Z,57.17
2018-03-06T23:24:26.467Z,50.85
2018-03-06T23:26:53.365Z,62.00
2018-03-06T23:29:20.158Z,61.40
2018-03-06T23:31:47.031Z,62.10
2018-03-06T23:34:14.614Z,64.70
2018-03-06T23:36:41.448Z,62.90
2018-03-06T23:39:08.315Z,53.40
2018-03-06T23:41:35.122Z,60.63
2018-03-06T23:44:02.706Z,62.78
2018-03-06T23:46:29.583Z,58.78
2018-03-06T23:48:56.406Z,56.90
2018-03-06T23:51:23.223Z,66.22
2018-03-06T23:53:50.087Z,59.72
2018-03-06T23:56:16.929Z,59.28
2018-03-06T23:58:43.775Z,54.22
